createdAt,value
2022-07-29T00:01:39.138Z,23.60
2022-07-29T00:04:27.171Z,23.50
2022-07-29T00:07:15.071Z,23.50
2022-07-29T00:10:02.803Z,23.60
2022-07-29T00:12:50.669Z,23.60
2022-07-29T00:15:38.646Z,23.50
2022-07-29T00:18:26.307Z,23.00
2022-07-29T00:21:14.280Z,22.90
2022-07-29T00:24:02.000Z,23.00
2022-07-29T00:26:49.693Z,23.20
2022-07-29T00:29:37.346Z,23.30
2022-07-29T00:32:25.024Z,23.20
2022-07-29T00:35:31.327Z,22.90
2022-07-29T00:38:22.036Z,23.00
2022-07-29T00:41:09.668Z,23.10
2022-07-29T00:43:57.350Z,23.00
2022-07-29T00:46:45.212Z,22.60
2022-07-29T00:49:33.925Z,22.70
2022-07-29T00:52:22.036Z,22.60
2022-07-29T00:55:15.094Z,21.90
2022-07-29T00:58:02.887Z,21.90
2022-07-29T01:00:50.777Z,22.20
2022-07-29T01:03:38.538Z,22.40
2022-07-29T01:06:26.521Z,22.50
2022-07-29T01:09:14.932Z,22.60
2022-07-29T01:12:03.973Z,22.60
2022-07-29T01:14:53.211Z,22.70
2022-07-29T01:18:11.115Z,22.70
2022-07-29T01:21:20.838Z,22.40
2022-07-29T01:24:31.180Z,22.10
2022-07-29T01:27:18.918Z,22.30
2022-07-29T01:30:09.772Z,22.60
2022-07-29T01:33:04.354Z,22.70
2022-07-29T01:35:52.327Z,22.80
2022-07-29T01:39:10.087Z,22.90
2022-07-29T01:41:59.792Z,23.00
2022-07-29T01:45:09.401Z,22.90
2022-07-29T01:48:48.343Z,22.80
2022-07-29T01:51:50.791Z,22.10
2022-07-29T01:55:04.090Z,21.90
2022-07-29T01:57:52.707Z,22.00
2022-07-29T02:00:43.631Z,22.10
2022-07-29T02:03:32.908Z,22.00
2022-07-29T02:06:23.167Z,21.90
2022-07-29T02:09:13.532Z,22.00
2022-07-29T02:12:03.627Z,22.20
2022-07-29T02:14:54.644Z,22.30
2022-07-29T02:17:56.320Z,22.30
2022-07-29T02:20:51.848Z,22.30
2022-07-29T02:23:50.051Z,22.20
2022-07-29T02:26:41.324Z,22.10
2022-07-29T02:29:32.900Z,21.80
2022-07-29T02:32:22.512Z,21.70
2022-07-29T02:35:11.725Z,21.90
2022-07-29T02:38:18.172Z,21.60
2022-07-29T02:41:14.623Z,21.10
2022-07-29T02:44:11.612Z,21.00
2022-07-29T02:47:22.599Z,21.30
2022-07-29T02:50:16.432Z,21.60
2022-07-29T02:53:15.587Z,21.30
2022-07-29T02:56:08.642Z,21.00
2022-07-29T02:58:59.823Z,21.00
2022-07-29T03:01:48.251Z,21.30
2022-07-29T03:04:36.650Z,21.60
2022-07-29T03:07:24.551Z,21.70
2022-07-29T03:10:13.849Z,21.70
2022-07-29T03:13:02.208Z,21.60
2022-07-29T03:15:51.077Z,21.50
2022-07-29T03:18:39.396Z,21.50
2022-07-29T03:21:27.175Z,21.70
2022-07-29T03:24:35.695Z,21.80
2022-07-29T03:27:23.545Z,21.70
2022-07-29T03:30:12.565Z,21.10
2022-07-29T03:33:13.258Z,21.00
2022-07-29T03:36:03.455Z,21.10
2022-07-29T03:38:51.607Z,21.30
2022-07-29T03:41:42.800Z,21.40
2022-07-29T03:44:32.010Z,21.50
2022-07-29T03:47:35.527Z,21.30
2022-07-29T03:50:33.701Z,21.40
2022-07-29T03:53:21.706Z,21.50
2022-07-29T04:00:09.724Z,21.70
2022-07-29T04:02:58.481Z,21.80
2022-07-29T04:05:46.194Z,21.70
2022-07-29T04:08:35.433Z,21.40
2022-07-29T04:11:23.084Z,21.10
2022-07-29T04:14:10.811Z,21.20
2022-07-29T04:16:58.487Z,21.40
2022-07-29T04:19:46.258Z,21.70
2022-07-29T04:22:59.421Z,21.70
2022-07-29T04:25:47.128Z,21.70
2022-07-29T04:28:34.906Z,21.80
2022-07-29T04:31:25.700Z,21.70
2022-07-29T04:34:15.065Z,21.50
2022-07-29T04:37:02.929Z,21.70
2022-07-29T04:39:50.568Z,21.90
2022-07-29T04:42:46.204Z,22.10
2022-07-29T04:45:34.666Z,22.20
2022-07-29T04:48:28.197Z,22.20
2022-07-29T04:51:17.281Z,22.30
2022-07-29T04:54:04.993Z,22.50
2022-07-29T04:56:52.661Z,22.70
2022-07-29T04:59:40.294Z,22.90
2022-07-29T05:02:28.075Z,23.00
2022-07-29T05:05:15.720Z,23.10
2022-07-29T05:08:03.437Z,23.10
2022-07-29T05:10:51.081Z,23.20
2022-07-29T05:13:45.285Z,23.10
2022-07-29T05:16:34.585Z,23.20
2022-07-29T05:19:22.280Z,23.40
2022-07-29T05:22:09.955Z,23.60
2022-07-29T05:24:57.738Z,23.60
2022-07-29T05:27:52.998Z,23.60
2022-07-29T05:30:41.013Z,23.60
2022-07-29T05:33:34.793Z,23.70
2022-07-29T05:36:27.526Z,23.90
2022-07-29T05:39:57.245Z,24.00
2022-07-29T05:42:46.902Z,23.90
2022-07-29T05:45:34.653Z,23.90
2022-07-29T05:48:37.230Z,23.90
2022-07-29T05:51:24.906Z,23.90
2022-07-29T05:54:12.763Z,24.00
2022-07-29T05:57:00.587Z,24.00
2022-07-29T05:59:49.314Z,23.90
2022-07-29T06:02:36.943Z,23.90
2022-07-29T06:05:24.851Z,23.80
2022-07-29T06:08:12.599Z,23.90
2022-07-29T06:11:00.764Z,24.10
2022-07-29T06:13:48.567Z,24.40
2022-07-29T06:16:36.343Z,24.60
2022-07-29T06:19:24.025Z,24.90
2022-07-29T06:22:12.117Z,25.00
2022-07-29T06:24:59.753Z,25.00
2022-07-29T06:27:47.435Z,25.20
2022-07-29T06:30:35.301Z,25.30
2022-07-29T06:33:23.091Z,25.40
2022-07-29T06:36:10.952Z,25.50
2022-07-29T06:39:00.041Z,25.60
2022-07-29T06:41:51.625Z,25.70
2022-07-29T06:44:39.270Z,25.60
2022-07-29T06:47:26.949Z,25.70
2022-07-29T06:50:15.199Z,25.80
2022-07-29T06:53:03.130Z,26.00
2022-07-29T06:55:50.799Z,26.00
2022-07-29T06:58:38.421Z,26.10
2022-07-29T07:01:26.214Z,26.10
2022-07-29T07:04:15.106Z,26.20
2022-07-29T07:07:03.049Z,26.30
2022-07-29T07:09:50.750Z,26.40
2022-07-29T07:12:38.523Z,26.50
2022-07-29T07:15:39.436Z,26.70
2022-07-29T07:18:27.740Z,26.60
2022-07-29T07:21:19.028Z,26.60
2022-07-29T07:24:07.721Z,26.70
2022-07-29T07:26:55.331Z,27.00
2022-07-29T07:29:44.325Z,27.00
2022-07-29T07:32:32.406Z,27.00
2022-07-29T07:35:20.789Z,27.10
2022-07-29T07:38:33.616Z,27.20
2022-07-29T07:45:38.693Z,27.60
2022-07-29T07:48:26.571Z,27.60
2022-07-29T07:51:14.448Z,27.50
2022-07-29T07:54:03.152Z,27.50
2022-07-29T07:56:52.989Z,27.50
2022-07-29T07:59:41.530Z,27.90
2022-07-29T08:02:29.226Z,28.00
2022-07-29T08:05:19.814Z,27.90
2022-07-29T08:08:08.037Z,28.10
2022-07-29T08:10:58.415Z,28.10
2022-07-29T08:13:46.135Z,28.10
2022-07-29T08:16:33.915Z,28.30
2022-07-29T08:19:21.559Z,28.40
2022-07-29T08:22:09.133Z,28.50
2022-07-29T08:24:57.364Z,28.70
2022-07-29T08:27:44.957Z,28.70
2022-07-29T08:30:33.497Z,28.30
2022-07-29T08:33:21.171Z,28.30
2022-07-29T08:36:09.089Z,28.60
2022-07-29T08:38:59.588Z,28.90
2022-07-29T08:41:56.648Z,28.50
2022-07-29T08:44:45.769Z,28.90
2022-07-29T08:47:37.292Z,29.40
2022-07-29T08:50:24.984Z,29.40
2022-07-29T08:53:15.047Z,29.70
2022-07-29T08:56:02.990Z,29.90
2022-07-29T08:58:52.030Z,29.70
2022-07-29T09:01:42.677Z,29.70
2022-07-29T09:04:35.596Z,29.50
2022-07-29T09:07:23.296Z,29.50
2022-07-29T09:10:11.467Z,29.40
2022-07-29T09:12:59.223Z,29.20
2022-07-29T09:15:47.018Z,28.70
2022-07-29T09:18:37.091Z,29.30
2022-07-29T09:21:43.416Z,29.90
2022-07-29T09:24:43.545Z,30.30
2022-07-29T09:27:31.114Z,30.60
2022-07-29T09:30:28.309Z,30.60
2022-07-29T09:33:20.289Z,30.60
2022-07-29T09:36:10.110Z,30.60
2022-07-29T09:39:01.801Z,30.70
2022-07-29T09:41:55.086Z,30.90
2022-07-29T09:44:45.403Z,31.10
2022-07-29T09:47:48.111Z,31.00
2022-07-29T09:50:43.713Z,31.30
2022-07-29T09:53:37.455Z,31.30
2022-07-29T09:56:42.977Z,31.30
2022-07-29T09:59:30.704Z,31.50
2022-07-29T10:02:23.741Z,32.00
2022-07-29T10:05:38.016Z,32.20
2022-07-29T10:08:28.488Z,32.00
2022-07-29T10:11:18.397Z,31.60
2022-07-29T10:14:06.313Z,31.40
2022-07-29T10:16:55.134Z,31.80
2022-07-29T10:19:43.591Z,32.40
2022-07-29T10:22:52.050Z,32.80
2022-07-29T10:25:38.965Z,32.90
2022-07-29T10:28:29.683Z,32.70
2022-07-29T10:31:26.878Z,33.00
2022-07-29T10:34:50.282Z,33.20
2022-07-29T10:38:05.455Z,33.00
2022-07-29T10:41:32.018Z,32.80
2022-07-29T10:44:24.125Z,33.20
2022-07-29T10:47:28.008Z,33.20
2022-07-29T10:50:17.209Z,33.50
2022-07-29T10:53:09.005Z,33.30
2022-07-29T10:59:22.728Z,33.40
2022-07-29T11:02:41.975Z,33.30
2022-07-29T11:05:40.851Z,33.60
2022-07-29T11:08:29.368Z,33.80
2022-07-29T11:11:29.684Z,34.30
2022-07-29T11:14:18.854Z,34.20
2022-07-29T11:17:09.084Z,34.70
2022-07-29T11:20:37.990Z,34.40
2022-07-29T11:23:33.356Z,34.00
2022-07-29T11:26:24.858Z,33.10
2022-07-29T11:29:20.780Z,32.20
2022-07-29T11:32:18.401Z,31.70
2022-07-29T11:35:19.261Z,31.50
2022-07-29T11:38:31.915Z,31.80
2022-07-29T11:41:27.313Z,32.40
2022-07-29T11:44:18.062Z,32.40
2022-07-29T11:47:06.394Z,32.40
2022-07-29T11:49:58.157Z,32.40
2022-07-29T11:52:50.073Z,32.20
2022-07-29T11:55:51.191Z,32.60
2022-07-29T11:58:40.127Z,32.80
2022-07-29T12:01:28.453Z,33.00
2022-07-29T12:04:16.038Z,32.70
2022-07-29T12:10:00.982Z,33.60
2022-07-29T12:12:53.894Z,33.60
2022-07-29T12:15:45.996Z,33.20
2022-07-29T12:18:34.444Z,33.80
2022-07-29T12:21:25.712Z,33.90
2022-07-29T12:24:13.594Z,34.10
2022-07-29T12:27:02.371Z,34.00
2022-07-29T12:30:04.259Z,33.40
2022-07-29T12:32:51.907Z,33.20
2022-07-29T12:35:40.295Z,32.80
2022-07-29T12:38:28.380Z,32.90
2022-07-29T12:41:16.106Z,33.00
2022-07-29T12:44:03.869Z,32.80
2022-07-29T12:47:06.774Z,32.60
2022-07-29T12:50:21.146Z,32.80
2022-07-29T12:53:12.992Z,32.70
2022-07-29T12:56:15.527Z,32.50
2022-07-29T12:59:14.692Z,32.20
2022-07-29T13:02:02.406Z,32.50
2022-07-29T13:04:58.995Z,32.00
2022-07-29T13:07:55.051Z,32.20
2022-07-29T13:10:44.642Z,32.20
2022-07-29T13:13:32.424Z,32.00
2022-07-29T13:16:20.235Z,32.00
2022-07-29T13:19:10.568Z,32.20
2022-07-29T13:21:58.602Z,32.20
2022-07-29T13:24:58.119Z,32.20
2022-07-29T13:27:46.995Z,32.00
2022-07-29T13:30:34.827Z,31.90
2022-07-29T13:33:22.528Z,32.00
2022-07-29T13:36:10.207Z,31.70
2022-07-29T13:38:57.880Z,31.80
2022-07-29T13:41:45.518Z,32.00
2022-07-29T13:44:33.155Z,32.00
2022-07-29T13:47:21.572Z,31.50
2022-07-29T13:50:11.396Z,31.40
2022-07-29T13:52:59.076Z,31.30
2022-07-29T13:55:46.754Z,31.60
2022-07-29T13:58:35.989Z,31.40
2022-07-29T14:01:24.556Z,31.50
2022-07-29T14:04:12.592Z,31.80
2022-07-29T14:07:00.613Z,31.40
2022-07-29T14:09:51.992Z,31.00
2022-07-29T14:12:39.690Z,31.30
2022-07-29T14:15:27.361Z,31.00
2022-07-29T14:18:15.135Z,30.80
2022-07-29T14:21:03.453Z,31.10
2022-07-29T14:23:51.754Z,31.30
2022-07-29T14:26:39.390Z,31.10
2022-07-29T14:29:37.007Z,30.70
2022-07-29T14:32:26.126Z,30.90
2022-07-29T14:35:13.898Z,30.70
2022-07-29T14:38:01.649Z,30.90
2022-07-29T14:40:50.915Z,31.00
2022-07-29T14:43:38.903Z,31.00
2022-07-29T14:46:26.622Z,31.00
2022-07-29T14:49:14.330Z,30.80
2022-07-29T14:52:02.248Z,30.70
2022-07-29T14:54:50.180Z,30.70
2022-07-29T14:57:37.842Z,30.60
2022-07-29T15:00:26.006Z,30.70
2022-07-29T15:03:14.091Z,30.40
2022-07-29T15:06:11.721Z,30.50
2022-07-29T15:08:59.435Z,30.50
2022-07-29T15:11:47.103Z,30.50
2022-07-29T15:14:35.180Z,30.30
2022-07-29T15:17:22.830Z,30.50
2022-07-29T15:20:11.491Z,30.50
2022-07-29T15:22:59.233Z,30.40
2022-07-29T15:25:46.899Z,30.20
2022-07-29T15:28:35.014Z,30.40
2022-07-29T15:31:22.991Z,30.30
2022-07-29T15:34:10.880Z,30.30
2022-07-29T15:36:58.679Z,30.20
2022-07-29T15:39:46.314Z,30.30
2022-07-29T15:42:37.460Z,30.10
2022-07-29T15:45:25.445Z,30.00
2022-07-29T15:48:14.903Z,29.80
2022-07-29T15:51:04.564Z,29.70
2022-07-29T15:53:53.462Z,29.70
2022-07-29T15:56:41.453Z,29.70
2022-07-29T15:59:29.754Z,29.70
2022-07-29T16:02:17.902Z,29.70
2022-07-29T16:05:09.462Z,29.60
2022-07-29T16:07:57.382Z,29.50
2022-07-29T16:10:45.019Z,29.50
2022-07-29T16:13:32.641Z,29.60
2022-07-29T16:16:20.488Z,29.40
2022-07-29T16:19:09.714Z,29.50
2022-07-29T16:21:59.903Z,29.70
2022-07-29T16:24:47.807Z,29.50
2022-07-29T16:27:37.873Z,29.40
2022-07-29T16:30:26.186Z,29.40
2022-07-29T16:33:13.972Z,29.30
2022-07-29T16:36:02.576Z,29.50
2022-07-29T16:38:50.460Z,29.30
2022-07-29T16:41:38.161Z,29.10
2022-07-29T16:44:25.822Z,29.10
2022-07-29T16:47:13.758Z,29.10
2022-07-29T16:50:01.417Z,29.10
2022-07-29T16:52:49.111Z,29.00
2022-07-29T16:55:36.911Z,29.00
2022-07-29T16:58:24.599Z,29.00
2022-07-29T17:01:12.940Z,29.00
2022-07-29T17:04:06.434Z,29.00
2022-07-29T17:06:54.188Z,29.10
2022-07-29T17:09:41.877Z,29.20
2022-07-29T17:12:31.142Z,29.00
2022-07-29T17:15:23.077Z,29.00
2022-07-29T17:18:12.267Z,28.90
2022-07-29T17:21:00.796Z,28.90
2022-07-29T17:23:48.948Z,28.90
2022-07-29T17:26:36.663Z,28.90
2022-07-29T17:29:24.669Z,28.90
2022-07-29T17:32:13.199Z,28.70
2022-07-29T17:35:00.832Z,28.70
2022-07-29T17:37:48.474Z,28.60
2022-07-29T17:40:36.221Z,28.50
2022-07-29T17:43:23.861Z,28.50
2022-07-29T17:46:12.731Z,28.40
2022-07-29T17:49:00.564Z,28.40
2022-07-29T17:51:48.346Z,28.30
2022-07-29T17:54:36.006Z,28.20
2022-07-29T17:57:23.724Z,28.10
2022-07-29T18:00:11.741Z,28.00
2022-07-29T18:02:59.605Z,28.00
2022-07-29T18:05:47.384Z,27.80
2022-07-29T18:08:35.263Z,27.80
2022-07-29T18:11:23.592Z,27.70
2022-07-29T18:14:11.381Z,27.70
2022-07-29T18:16:59.345Z,27.70
2022-07-29T18:24:20.525Z,27.50
2022-07-29T18:27:08.296Z,27.50
2022-07-29T18:29:56.155Z,27.40
2022-07-29T18:32:59.073Z,27.30
2022-07-29T18:36:10.634Z,27.20
2022-07-29T18:38:59.357Z,27.20
2022-07-29T18:41:50.174Z,27.10
2022-07-29T18:44:43.506Z,27.00
2022-07-29T18:47:32.122Z,27.00
2022-07-29T18:50:20.736Z,27.10
2022-07-29T18:53:08.749Z,27.20
2022-07-29T18:56:00.269Z,27.20
2022-07-29T18:58:48.144Z,27.10
2022-07-29T19:01:37.090Z,27.10
2022-07-29T19:04:24.888Z,27.00
2022-07-29T19:07:12.542Z,27.10
2022-07-29T19:10:00.336Z,27.00
2022-07-29T19:12:48.020Z,27.00
2022-07-29T19:15:35.732Z,27.00
2022-07-29T19:18:23.350Z,26.90
2022-07-29T19:21:11.419Z,26.90
2022-07-29T19:24:06.113Z,26.80
2022-07-29T19:26:57.471Z,26.90
2022-07-29T19:29:45.987Z,26.90
2022-07-29T19:32:33.753Z,27.00
2022-07-29T19:35:33.259Z,27.10
2022-07-29T19:38:21.180Z,27.10
2022-07-29T19:41:08.828Z,27.00
2022-07-29T19:43:56.668Z,26.60
2022-07-29T19:46:45.521Z,26.50
2022-07-29T19:49:37.292Z,26.60
2022-07-29T19:52:24.935Z,26.70
2022-07-29T19:55:12.966Z,26.60
2022-07-29T19:58:02.505Z,26.50
2022-07-29T20:00:53.124Z,25.90
2022-07-29T20:03:40.817Z,25.50
2022-07-29T20:06:28.600Z,25.30
2022-07-29T20:09:16.807Z,25.40
2022-07-29T20:12:11.882Z,25.60
2022-07-29T20:15:00.944Z,25.70
2022-07-29T20:17:48.627Z,25.80
2022-07-29T20:20:36.323Z,25.90
2022-07-29T20:23:24.084Z,26.00
2022-07-29T20:26:12.235Z,26.00
2022-07-29T20:29:00.565Z,26.00
2022-07-29T20:31:52.236Z,25.70
2022-07-29T20:34:44.813Z,25.60
2022-07-29T20:37:33.018Z,25.60
2022-07-29T20:40:40.289Z,25.60
2022-07-29T20:43:27.962Z,25.70
2022-07-29T20:46:16.255Z,25.80
2022-07-29T20:49:04.297Z,25.80
2022-07-29T20:51:52.077Z,25.60
2022-07-29T20:54:40.032Z,25.60
2022-07-29T20:57:39.485Z,25.00
2022-07-29T21:00:28.883Z,24.80
2022-07-29T21:03:18.473Z,24.80
2022-07-29T21:06:08.161Z,25.00
2022-07-29T21:08:58.151Z,25.20
2022-07-29T21:11:46.234Z,25.30
2022-07-29T21:14:37.308Z,25.40
2022-07-29T21:17:25.508Z,25.50
2022-07-29T21:20:15.652Z,25.30
2022-07-29T21:23:03.484Z,24.80
2022-07-29T21:25:51.946Z,24.60
2022-07-29T21:28:43.669Z,24.40
2022-07-29T21:31:31.535Z,24.50
2022-07-29T21:34:19.151Z,24.70
2022-07-29T21:37:06.887Z,24.70
2022-07-29T21:39:56.183Z,24.00
2022-07-29T21:42:43.932Z,23.80
2022-07-29T21:45:33.632Z,24.00
2022-07-29T21:48:23.352Z,24.30
2022-07-29T21:51:11.084Z,24.40
2022-07-29T21:53:59.619Z,24.40
2022-07-29T21:56:51.042Z,24.20
2022-07-29T21:59:39.601Z,24.20
2022-07-29T22:02:27.462Z,24.20
2022-07-29T22:05:15.365Z,24.30
2022-07-29T22:08:04.200Z,24.30
2022-07-29T22:10:52.576Z,24.20
2022-07-29T22:13:41.714Z,24.40
2022-07-29T22:16:29.891Z,24.50
2022-07-29T22:19:18.135Z,24.50
2022-07-29T22:22:06.291Z,24.40
2022-07-29T22:24:53.932Z,24.40
2022-07-29T22:27:41.940Z,24.00
2022-07-29T22:30:30.361Z,24.00
2022-07-29T22:33:18.306Z,24.00
2022-07-29T22:36:13.092Z,24.00
2022-07-29T22:39:01.010Z,23.90
2022-07-29T22:41:48.968Z,24.00
2022-07-29T22:44:37.069Z,24.00
2022-07-29T22:47:46.081Z,24.00
2022-07-29T22:50:33.185Z,24.00
2022-07-29T22:53:23.712Z,24.20
2022-07-29T22:56:11.565Z,24.20
2022-07-29T22:58:59.314Z,24.40
2022-07-29T23:01:47.102Z,24.40
2022-07-29T23:04:42.394Z,24.40
2022-07-29T23:08:33.015Z,24.30
2022-07-29T23:11:20.656Z,24.20
2022-07-29T23:14:09.471Z,24.20
2022-07-29T23:16:57.365Z,24.20
2022-07-29T23:19:45.328Z,24.20
2022-07-29T23:22:33.133Z,23.60
2022-07-29T23:25:20.854Z,23.40
2022-07-29T23:28:12.235Z,23.20
2022-07-29T23:35:31.554Z,23.30
2022-07-29T23:38:19.282Z,23.50
2022-07-29T23:41:09.898Z,23.60
2022-07-29T23:43:58.084Z,23.60
2022-07-29T23:46:45.951Z,23.10
2022-07-29T23:49:34.741Z,23.00
2022-07-29T23:52:22.584Z,23.10
2022-07-29T23:55:36.876Z,23.20
2022-07-29T23:58:21.379Z,23.30
